sensor_id;sensor_type;location;lat;lon;timestamp;temperature;humidity
4755;DHT22;2391;47.212;7.542;2023-01-25T00:02:19;4.40;98.90
4755;DHT22;2391;47.212;7.542;2023-01-25T00:04:45;4.40;98.80
4755;DHT22;2391;47.212;7.542;2023-01-25T00:07:11;4.40;98.70
4755;DHT22;2391;47.212;7.542;2023-01-25T00:09:36;4.40;98.70
4755;DHT22;2391;47.212;7.542;2023-01-25T00:12:02;4.40;98.80
4755;DHT22;2391;47.212;7.542;2023-01-25T00:14:28;4.40;98.80
4755;DHT22;2391;47.212;7.542;2023-01-25T00:16:54;4.30;98.80
4755;DHT22;2391;47.212;7.542;2023-01-25T00:19:20;4.20;98.90
4755;DHT22;2391;47.212;7.542;2023-01-25T00:21:46;4.10;99.30
4755;DHT22;2391;47.212;7.542;2023-01-25T00:24:12;4.10;99.20
4755;DHT22;2391;47.212;7.542;2023-01-25T00:26:39;4.00;99.30
4755;DHT22;2391;47.212;7.542;2023-01-25T00:29:05;4.00;99.40
4755;DHT22;2391;47.212;7.542;2023-01-25T00:39:41;4.10;99.40
4755;DHT22;2391;47.212;7.542;2023-01-25T00:42:09;4.00;99.30
4755;DHT22;2391;47.212;7.542;2023-01-25T00:44:36;4.10;99.30
4755;DHT22;2391;47.212;7.542;2023-01-25T00:47:02;4.10;99.30
4755;DHT22;2391;47.212;7.542;2023-01-25T00:49:30;4.10;99.20
4755;DHT22;2391;47.212;7.542;2023-01-25T00:51:57;4.10;99.20
4755;DHT22;2391;47.212;7.542;2023-01-25T00:54:23;4.00;99.40
4755;DHT22;2391;47.212;7.542;2023-01-25T00:56:50;4.00;99.50
4755;DHT22;2391;47.212;7.542;2023-01-25T00:59:21;4.00;99.60
4755;DHT22;2391;47.212;7.542;2023-01-25T01:01:49;4.00;99.60
4755;DHT22;2391;47.212;7.542;2023-01-25T01:04:16;4.00;99.70
4755;DHT22;2391;47.212;7.542;2023-01-25T01:06:42;4.10;99.70
4755;DHT22;2391;47.212;7.542;2023-01-25T01:09:11;4.10;99.70
4755;DHT22;2391;47.212;7.542;2023-01-25T01:11:37;4.20;99.60
4755;DHT22;2391;47.212;7.542;2023-01-25T01:14:03;4.20;99.60
4755;DHT22;2391;47.212;7.542;2023-01-25T01:16:29;4.10;99.90
4755;DHT22;2391;47.212;7.542;2023-01-25T01:18:54;4.10;99.70
4755;DHT22;2391;47.212;7.542;2023-01-25T01:21:20;4.10;99.70
4755;DHT22;2391;47.212;7.542;2023-01-25T01:23:46;4.20;99.60
4755;DHT22;2391;47.212;7.542;2023-01-25T01:26:15;4.20;99.60
4755;DHT22;2391;47.212;7.542;2023-01-25T01:28:44;4.20;99.60
4755;DHT22;2391;47.212;7.542;2023-01-25T01:31:13;4.20;99.60
4755;DHT22;2391;47.212;7.542;2023-01-25T01:33:39;4.30;99.50
4755;DHT22;2391;47.212;7.542;2023-01-25T01:36:14;4.30;99.50
4755;DHT22;2391;47.212;7.542;2023-01-25T01:38:41;4.30;99.40
4755;DHT22;2391;47.212;7.542;2023-01-25T01:41:07;4.40;99.40
4755;DHT22;2391;47.212;7.542;2023-01-25T01:43:34;4.40;99.50
4755;DHT22;2391;47.212;7.542;2023-01-25T01:46:08;4.40;99.50
4755;DHT22;2391;47.212;7.542;2023-01-25T01:48:42;4.40;99.50
4755;DHT22;2391;47.212;7.542;2023-01-25T01:51:20;4.30;99.50
4755;DHT22;2391;47.212;7.542;2023-01-25T01:53:47;4.50;99.50
4755;DHT22;2391;47.212;7.542;2023-01-25T01:56:16;4.60;99.30
4755;DHT22;2391;47.212;7.542;2023-01-25T01:58:43;4.70;99.20
4755;DHT22;2391;47.212;7.542;2023-01-25T02:01:10;4.60;99.00
4755;DHT22;2391;47.212;7.542;2023-01-25T02:03:37;4.70;98.90
4755;DHT22;2391;47.212;7.542;2023-01-25T02:06:15;4.70;98.80
4755;DHT22;2391;47.212;7.542;2023-01-25T02:08:33;4.70;98.80
4755;DHT22;2391;47.212;7.542;2023-01-25T02:11:03;4.70;98.80
4755;DHT22;2391;47.212;7.542;2023-01-25T02:13:30;4.60;98.90
4755;DHT22;2391;47.212;7.542;2023-01-25T02:15:56;4.50;98.90
4755;DHT22;2391;47.212;7.542;2023-01-25T02:18:23;4.50;99.10
4755;DHT22;2391;47.212;7.542;2023-01-25T02:20:52;4.50;99.10
4755;DHT22;2391;47.212;7.542;2023-01-25T02:26:06;4.40;99.10
4755;DHT22;2391;47.212;7.542;2023-01-25T02:28:58;4.40;99.10
4755;DHT22;2391;47.212;7.542;2023-01-25T02:31:23;4.30;99.20
4755;DHT22;2391;47.212;7.542;2023-01-25T02:33:49;4.20;99.30
4755;DHT22;2391;47.212;7.542;2023-01-25T02:36:21;4.00;99.40
4755;DHT22;2391;47.212;7.542;2023-01-25T02:38:51;4.00;99.70
4755;DHT22;2391;47.212;7.542;2023-01-25T02:41:35;4.00;99.80
4755;DHT22;2391;47.212;7.542;2023-01-25T02:44:04;4.00;99.90
4755;DHT22;2391;47.212;7.542;2023-01-25T02:46:33;4.10;99.90
4755;DHT22;2391;47.212;7.542;2023-01-25T02:49:00;4.20;99.70
4755;DHT22;2391;47.212;7.542;2023-01-25T02:51:28;4.30;99.50
4755;DHT22;2391;47.212;7.542;2023-01-25T02:53:55;4.30;99.50
4755;DHT22;2391;47.212;7.542;2023-01-25T02:56:21;4.20;99.50
4755;DHT22;2391;47.212;7.542;2023-01-25T02:58:47;4.10;99.60
4755;DHT22;2391;47.212;7.542;2023-01-25T03:01:14;4.20;99.70
4755;DHT22;2391;47.212;7.542;2023-01-25T03:03:40;4.30;99.70
4755;DHT22;2391;47.212;7.542;2023-01-25T03:06:06;4.30;99.60
4755;DHT22;2391;47.212;7.542;2023-01-25T03:08:33;4.30;99.50
4755;DHT22;2391;47.212;7.542;2023-01-25T03:11:01;4.20;99.60
4755;DHT22;2391;47.212;7.542;2023-01-25T03:13:28;4.20;99.60
4755;DHT22;2391;47.212;7.542;2023-01-25T03:16:06;4.20;99.70
4755;DHT22;2391;47.212;7.542;2023-01-25T03:18:29;4.20;99.60
4755;DHT22;2391;47.212;7.542;2023-01-25T03:20:55;4.20;99.60
4755;DHT22;2391;47.212;7.542;2023-01-25T03:23:21;4.20;99.60
4755;DHT22;2391;47.212;7.542;2023-01-25T03:25:47;4.20;99.60
4755;DHT22;2391;47.212;7.542;2023-01-25T03:28:13;4.30;99.60
4755;DHT22;2391;47.212;7.542;2023-01-25T03:30:39;4.30;99.50
4755;DHT22;2391;47.212;7.542;2023-01-25T03:33:04;4.20;99.50
4755;DHT22;2391;47.212;7.542;2023-01-25T03:35:32;4.30;99.40
4755;DHT22;2391;47.212;7.542;2023-01-25T03:37:58;4.20;99.40
4755;DHT22;2391;47.212;7.542;2023-01-25T03:40:24;4.10;99.50
4755;DHT22;2391;47.212;7.542;2023-01-25T03:42:49;4.10;99.60
4755;DHT22;2391;47.212;7.542;2023-01-25T03:45:16;4.00;99.70
4755;DHT22;2391;47.212;7.542;2023-01-25T03:47:42;3.90;99.70
4755;DHT22;2391;47.212;7.542;2023-01-25T03:50:08;4.00;99.80
4755;DHT22;2391;47.212;7.542;2023-01-25T03:52:35;4.00;99.70
4755;DHT22;2391;47.212;7.542;2023-01-25T03:55:04;4.00;99.70
4755;DHT22;2391;47.212;7.542;2023-01-25T03:57:30;4.00;99.70
4755;DHT22;2391;47.212;7.542;2023-01-25T03:59:55;3.90;99.80
4755;DHT22;2391;47.212;7.542;2023-01-25T04:02:21;3.90;99.80
4755;DHT22;2391;47.212;7.542;2023-01-25T04:04:47;3.90;99.90
4755;DHT22;2391;47.212;7.542;2023-01-25T04:07:13;3.90;99.90
4755;DHT22;2391;47.212;7.542;2023-01-25T04:09:38;3.90;99.90
4755;DHT22;2391;47.212;7.542;2023-01-25T04:12:04;3.90;99.90
4755;DHT22;2391;47.212;7.542;2023-01-25T04:14:30;3.90;99.90
4755;DHT22;2391;47.212;7.542;2023-01-25T04:16:56;3.90;99.90
4755;DHT22;2391;47.212;7.542;2023-01-25T04:19:22;4.00;99.90
4755;DHT22;2391;47.212;7.542;2023-01-25T04:21:47;4.00;99.90
4755;DHT22;2391;47.212;7.542;2023-01-25T04:24:13;4.00;99.80
4755;DHT22;2391;47.212;7.542;2023-01-25T04:26:39;3.90;99.80
4755;DHT22;2391;47.212;7.542;2023-01-25T04:29:05;4.00;99.90
4755;DHT22;2391;47.212;7.542;2023-01-25T04:31:31;4.00;99.80
4755;DHT22;2391;47.212;7.542;2023-01-25T04:33:56;4.00;99.80
4755;DHT22;2391;47.212;7.542;2023-01-25T04:36:22;3.90;99.90
4755;DHT22;2391;47.212;7.542;2023-01-25T04:38:48;3.90;99.90
4755;DHT22;2391;47.212;7.542;2023-01-25T04:41:14;3.90;99.90
4755;DHT22;2391;47.212;7.542;2023-01-25T04:43:39;4.00;99.90
4755;DHT22;2391;47.212;7.542;2023-01-25T04:46:05;4.10;99.90
4755;DHT22;2391;47.212;7.542;2023-01-25T04:48:31;4.00;99.80
4755;DHT22;2391;47.212;7.542;2023-01-25T04:50:57;3.90;99.90
4755;DHT22;2391;47.212;7.542;2023-01-25T04:53:23;3.80;99.90
4755;DHT22;2391;47.212;7.542;2023-01-25T04:55:49;3.80;99.90
4755;DHT22;2391;47.212;7.542;2023-01-25T04:58:15;3.80;99.90
4755;DHT22;2391;47.212;7.542;2023-01-25T05:00:41;3.80;99.90
4755;DHT22;2391;47.212;7.542;2023-01-25T05:03:07;3.90;99.90
4755;DHT22;2391;47.212;7.542;2023-01-25T05:05:33;3.90;99.90
4755;DHT22;2391;47.212;7.542;2023-01-25T05:07:59;4.00;99.90
4755;DHT22;2391;47.212;7.542;2023-01-25T05:10:24;4.00;99.90
4755;DHT22;2391;47.212;7.542;2023-01-25T05:12:52;4.00;99.90
4755;DHT22;2391;47.212;7.542;2023-01-25T05:15:18;3.90;99.90
4755;DHT22;2391;47.212;7.542;2023-01-25T05:17:44;4.00;99.90
4755;DHT22;2391;47.212;7.542;2023-01-25T05:20:10;4.00;99.90
4755;DHT22;2391;47.212;7.542;2023-01-25T05:22:36;4.00;99.90
4755;DHT22;2391;47.212;7.542;2023-01-25T05:25:02;4.00;99.90
4755;DHT22;2391;47.212;7.542;2023-01-25T05:27:28;4.00;99.90
4755;DHT22;2391;47.212;7.542;2023-01-25T05:29:55;3.90;99.90
4755;DHT22;2391;47.212;7.542;2023-01-25T05:32:22;3.80;99.90
4755;DHT22;2391;47.212;7.542;2023-01-25T05:34:48;3.80;99.90
4755;DHT22;2391;47.212;7.542;2023-01-25T05:37:17;3.70;99.90
4755;DHT22;2391;47.212;7.542;2023-01-25T05:39:43;3.60;99.90
4755;DHT22;2391;47.212;7.542;2023-01-25T05:42:14;3.70;99.90
4755;DHT22;2391;47.212;7.542;2023-01-25T05:44:41;3.80;99.90
4755;DHT22;2391;47.212;7.542;2023-01-25T05:47:12;3.80;99.90
4755;DHT22;2391;47.212;7.542;2023-01-25T05:49:38;3.80;99.90
4755;DHT22;2391;47.212;7.542;2023-01-25T05:52:04;3.80;99.90
4755;DHT22;2391;47.212;7.542;2023-01-25T05:54:30;3.80;99.90
4755;DHT22;2391;47.212;7.542;2023-01-25T05:56:56;3.80;99.90
4755;DHT22;2391;47.212;7.542;2023-01-25T05:59:22;3.70;99.90
4755;DHT22;2391;47.212;7.542;2023-01-25T06:01:47;3.70;99.90
4755;DHT22;2391;47.212;7.542;2023-01-25T06:04:14;3.70;99.90
4755;DHT22;2391;47.212;7.542;2023-01-25T06:06:40;3.70;99.90
4755;DHT22;2391;47.212;7.542;2023-01-25T06:09:07;3.70;99.90
4755;DHT22;2391;47.212;7.542;2023-01-25T06:11:34;3.60;99.90
4755;DHT22;2391;47.212;7.542;2023-01-25T06:14:00;3.60;99.90
4755;DHT22;2391;47.212;7.542;2023-01-25T06:16:26;3.50;99.90
4755;DHT22;2391;47.212;7.542;2023-01-25T06:18:52;3.50;99.90
4755;DHT22;2391;47.212;7.542;2023-01-25T06:21:17;3.50;99.90
4755;DHT22;2391;47.212;7.542;2023-01-25T06:23:43;3.50;99.90
4755;DHT22;2391;47.212;7.542;2023-01-25T06:26:11;3.50;99.90
4755;DHT22;2391;47.212;7.542;2023-01-25T06:28:38;3.40;99.90
4755;DHT22;2391;47.212;7.542;2023-01-25T06:31:10;3.40;99.90
4755;DHT22;2391;47.212;7.542;2023-01-25T06:33:34;3.40;99.90
4755;DHT22;2391;47.212;7.542;2023-01-25T06:36:05;3.30;99.90
4755;DHT22;2391;47.212;7.542;2023-01-25T06:38:32;3.40;99.90
4755;DHT22;2391;47.212;7.542;2023-01-25T06:41:03;3.50;99.90
4755;DHT22;2391;47.212;7.542;2023-01-25T06:43:31;3.60;99.90
4755;DHT22;2391;47.212;7.542;2023-01-25T06:46:01;3.70;99.90
4755;DHT22;2391;47.212;7.542;2023-01-25T06:48:28;3.70;99.90
4755;DHT22;2391;47.212;7.542;2023-01-25T06:51:03;3.80;99.90
4755;DHT22;2391;47.212;7.542;2023-01-25T06:53:31;3.80;99.90
4755;DHT22;2391;47.212;7.542;2023-01-25T06:56:03;3.90;99.90
4755;DHT22;2391;47.212;7.542;2023-01-25T06:58:30;3.90;99.90
4755;DHT22;2391;47.212;7.542;2023-01-25T07:01:07;3.80;99.90
4755;DHT22;2391;47.212;7.542;2023-01-25T07:03:30;3.70;99.90
4755;DHT22;2391;47.212;7.542;2023-01-25T07:06:02;3.70;99.90
4755;DHT22;2391;47.212;7.542;2023-01-25T07:08:26;3.70;99.90
4755;DHT22;2391;47.212;7.542;2023-01-25T07:10:54;3.60;99.90
4755;DHT22;2391;47.212;7.542;2023-01-25T07:13:21;3.60;99.90
4755;DHT22;2391;47.212;7.542;2023-01-25T07:15:59;3.60;99.90
4755;DHT22;2391;47.212;7.542;2023-01-25T07:18:27;3.70;99.90
4755;DHT22;2391;47.212;7.542;2023-01-25T07:21:07;3.60;99.90
4755;DHT22;2391;47.212;7.542;2023-01-25T07:23:33;3.50;99.90
4755;DHT22;2391;47.212;7.542;2023-01-25T07:26:03;3.50;99.90
4755;DHT22;2391;47.212;7.542;2023-01-25T07:28:30;3.50;99.90
4755;DHT22;2391;47.212;7.542;2023-01-25T07:31:05;3.40;99.90
4755;DHT22;2391;47.212;7.542;2023-01-25T07:33:32;3.40;99.90
4755;DHT22;2391;47.212;7.542;2023-01-25T07:36:23;3.40;99.90
4755;DHT22;2391;47.212;7.542;2023-01-25T07:39:01;3.40;99.90
4755;DHT22;2391;47.212;7.542;2023-01-25T07:41:32;3.40;99.90
4755;DHT22;2391;47.212;7.542;2023-01-25T07:43:57;3.40;99.90
4755;DHT22;2391;47.212;7.542;2023-01-25T07:46:25;3.40;99.90
4755;DHT22;2391;47.212;7.542;2023-01-25T07:48:53;3.40;99.90
4755;DHT22;2391;47.212;7.542;2023-01-25T07:51:23;3.40;99.90
4755;DHT22;2391;47.212;7.542;2023-01-25T07:53:54;3.40;99.90
4755;DHT22;2391;47.212;7.542;2023-01-25T07:56:23;3.30;99.90
4755;DHT22;2391;47.212;7.542;2023-01-25T07:58:55;3.30;99.90
4755;DHT22;2391;47.212;7.542;2023-01-25T08:01:26;3.20;99.90
4755;DHT22;2391;47.212;7.542;2023-01-25T08:03:53;3.20;99.90
4755;DHT22;2391;47.212;7.542;2023-01-25T08:06:25;3.20;99.90
4755;DHT22;2391;47.212;7.542;2023-01-25T08:08:53;3.20;99.90
4755;DHT22;2391;47.212;7.542;2023-01-25T08:11:23;3.30;99.90
4755;DHT22;2391;47.212;7.542;2023-01-25T08:13:49;3.30;99.90
4755;DHT22;2391;47.212;7.542;2023-01-25T08:16:19;3.30;99.90
4755;DHT22;2391;47.212;7.542;2023-01-25T08:18:50;3.40;99.90
4755;DHT22;2391;47.212;7.542;2023-01-25T08:21:16;3.40;99.90
4755;DHT22;2391;47.212;7.542;2023-01-25T08:23:42;3.50;99.90
4755;DHT22;2391;47.212;7.542;2023-01-25T08:26:13;3.50;99.90
4755;DHT22;2391;47.212;7.542;2023-01-25T08:28:43;3.60;99.90
4755;DHT22;2391;47.212;7.542;2023-01-25T08:31:14;3.60;99.90
4755;DHT22;2391;47.212;7.542;2023-01-25T08:33:41;3.60;99.90
4755;DHT22;2391;47.212;7.542;2023-01-25T08:36:10;3.50;99.90
4755;DHT22;2391;47.212;7.542;2023-01-25T08:38:38;3.50;99.90
4755;DHT22;2391;47.212;7.542;2023-01-25T08:41:13;3.40;99.90
4755;DHT22;2391;47.212;7.542;2023-01-25T08:43:43;3.40;99.90
4755;DHT22;2391;47.212;7.542;2023-01-25T08:46:12;3.40;99.90
4755;DHT22;2391;47.212;7.542;2023-01-25T08:48:39;3.50;99.90
4755;DHT22;2391;47.212;7.542;2023-01-25T08:51:08;3.60;99.90
4755;DHT22;2391;47.212;7.542;2023-01-25T08:53:38;3.60;99.90
4755;DHT22;2391;47.212;7.542;2023-01-25T08:56:08;3.50;99.90
4755;DHT22;2391;47.212;7.542;2023-01-25T08:58:37;3.50;99.90
4755;DHT22;2391;47.212;7.542;2023-01-25T09:01:05;3.50;99.90
4755;DHT22;2391;47.212;7.542;2023-01-25T09:03:36;3.50;99.90
4755;DHT22;2391;47.212;7.542;2023-01-25T09:06:07;3.50;99.90
4755;DHT22;2391;47.212;7.542;2023-01-25T09:08:33;3.60;99.90
4755;DHT22;2391;47.212;7.542;2023-01-25T09:11:03;3.60;99.90
4755;DHT22;2391;47.212;7.542;2023-01-25T09:13:31;3.60;99.90
4755;DHT22;2391;47.212;7.542;2023-01-25T09:16:04;3.60;99.90
4755;DHT22;2391;47.212;7.542;2023-01-25T09:18:31;3.70;99.90
4755;DHT22;2391;47.212;7.542;2023-01-25T09:21:09;3.70;99.90
4755;DHT22;2391;47.212;7.542;2023-01-25T09:23:36;3.70;99.90
4755;DHT22;2391;47.212;7.542;2023-01-25T09:26:04;3.70;99.90
4755;DHT22;2391;47.212;7.542;2023-01-25T09:28:36;3.70;99.90
4755;DHT22;2391;47.212;7.542;2023-01-25T09:31:03;3.70;99.90
4755;DHT22;2391;47.212;7.542;2023-01-25T09:33:32;3.70;99.90
4755;DHT22;2391;47.212;7.542;2023-01-25T09:36:00;3.70;99.90
4755;DHT22;2391;47.212;7.542;2023-01-25T09:38:27;3.70;99.90
4755;DHT22;2391;47.212;7.542;2023-01-25T09:44:11;3.50;99.90
4755;DHT22;2391;47.212;7.542;2023-01-25T09:46:52;3.50;99.90
4755;DHT22;2391;47.212;7.542;2023-01-25T09:55:15;3.50;99.90
4755;DHT22;2391;47.212;7.542;2023-01-25T09:57:44;3.50;99.90
4755;DHT22;2391;47.212;7.542;2023-01-25T10:00:19;3.50;99.90
4755;DHT22;2391;47.212;7.542;2023-01-25T10:02:58;3.40;99.90
4755;DHT22;2391;47.212;7.542;2023-01-25T10:05:21;3.50;99.90
4755;DHT22;2391;47.212;7.542;2023-01-25T10:10:40;3.50;99.90
4755;DHT22;2391;47.212;7.542;2023-01-25T10:13:16;3.50;99.90
4755;DHT22;2391;47.212;7.542;2023-01-25T10:15:47;3.40;99.90
4755;DHT22;2391;47.212;7.542;2023-01-25T10:18:39;3.40;99.90
4755;DHT22;2391;47.212;7.542;2023-01-25T10:26:00;3.30;99.90
4755;DHT22;2391;47.212;7.542;2023-01-25T10:28:40;3.20;99.90
4755;DHT22;2391;47.212;7.542;2023-01-25T10:31:28;3.20;99.90
4755;DHT22;2391;47.212;7.542;2023-01-25T10:33:42;3.20;99.90
4755;DHT22;2391;47.212;7.542;2023-01-25T10:36:19;3.30;99.90
4755;DHT22;2391;47.212;7.542;2023-01-25T10:38:43;3.20;99.90
4755;DHT22;2391;47.212;7.542;2023-01-25T10:41:25;3.20;99.90
4755;DHT22;2391;47.212;7.542;2023-01-25T10:43:56;3.10;99.90
4755;DHT22;2391;47.212;7.542;2023-01-25T10:46:46;3.10;99.90
4755;DHT22;2391;47.212;7.542;2023-01-25T10:49:26;3.10;99.90
4755;DHT22;2391;47.212;7.542;2023-01-25T10:51:53;3.10;99.90
4755;DHT22;2391;47.212;7.542;2023-01-25T10:54:22;3.20;99.90
4755;DHT22;2391;47.212;7.542;2023-01-25T10:56:49;3.20;99.90
4755;DHT22;2391;47.212;7.542;2023-01-25T10:59:18;3.30;99.90
4755;DHT22;2391;47.212;7.542;2023-01-25T11:01:46;3.30;99.90
4755;DHT22;2391;47.212;7.542;2023-01-25T11:04:29;3.30;99.90
4755;DHT22;2391;47.212;7.542;2023-01-25T11:06:54;3.30;99.90
4755;DHT22;2391;47.212;7.542;2023-01-25T11:12:01;3.40;99.90
4755;DHT22;2391;47.212;7.542;2023-01-25T11:14:30;3.40;99.90
4755;DHT22;2391;47.212;7.542;2023-01-25T11:16:58;3.40;99.90
4755;DHT22;2391;47.212;7.542;2023-01-25T11:22:02;3.20;99.90
4755;DHT22;2391;47.212;7.542;2023-01-25T11:24:30;3.10;99.90
4755;DHT22;2391;47.212;7.542;2023-01-25T11:27:25;3.10;99.90
4755;DHT22;2391;47.212;7.542;2023-01-25T11:30:16;3.10;99.90
4755;DHT22;2391;47.212;7.542;2023-01-25T11:32:40;3.20;99.90
4755;DHT22;2391;47.212;7.542;2023-01-25T11:35:19;3.20;99.90
4755;DHT22;2391;47.212;7.542;2023-01-25T11:38:07;3.10;99.90
4755;DHT22;2391;47.212;7.542;2023-01-25T11:40:48;3.10;99.90
4755;DHT22;2391;47.212;7.542;2023-01-25T11:51:49;2.90;99.90
4755;DHT22;2391;47.212;7.542;2023-01-25T11:56:57;2.90;99.90
4755;DHT22;2391;47.212;7.542;2023-01-25T12:05:37;3.00;99.90
4755;DHT22;2391;47.212;7.542;2023-01-25T12:10:57;3.20;99.90
4755;DHT22;2391;47.212;7.542;2023-01-25T12:21:23;3.40;99.90
4755;DHT22;2391;47.212;7.542;2023-01-25T12:29:59;3.50;99.90
4755;DHT22;2391;47.212;7.542;2023-01-25T12:34:37;3.40;99.90
4755;DHT22;2391;47.212;7.542;2023-01-25T12:37:17;3.40;99.90
4755;DHT22;2391;47.212;7.542;2023-01-25T12:39:51;3.50;99.90
4755;DHT22;2391;47.212;7.542;2023-01-25T12:42:25;3.50;99.90
4755;DHT22;2391;47.212;7.542;2023-01-25T12:44:55;3.50;99.90
4755;DHT22;2391;47.212;7.542;2023-01-25T12:50:19;3.60;99.90
4755;DHT22;2391;47.212;7.542;2023-01-25T12:52:48;3.60;99.90
4755;DHT22;2391;47.212;7.542;2023-01-25T12:55:16;3.60;99.90
4755;DHT22;2391;47.212;7.542;2023-01-25T12:57:57;3.50;99.90
4755;DHT22;2391;47.212;7.542;2023-01-25T13:11:24;3.40;99.90
4755;DHT22;2391;47.212;7.542;2023-01-25T13:13:51;3.40;99.90
4755;DHT22;2391;47.212;7.542;2023-01-25T13:18:58;3.50;99.90
4755;DHT22;2391;47.212;7.542;2023-01-25T13:21:43;3.50;99.90
4755;DHT22;2391;47.212;7.542;2023-01-25T13:24:21;3.60;99.90
4755;DHT22;2391;47.212;7.542;2023-01-25T13:31:58;3.40;99.90
4755;DHT22;2391;47.212;7.542;2023-01-25T13:42:23;3.60;99.90
4755;DHT22;2391;47.212;7.542;2023-01-25T13:44:53;3.50;99.90
4755;DHT22;2391;47.212;7.542;2023-01-25T13:47:22;3.40;99.90
4755;DHT22;2391;47.212;7.542;2023-01-25T13:49:53;3.40;99.90
4755;DHT22;2391;47.212;7.542;2023-01-25T13:52:20;3.40;99.90
4755;DHT22;2391;47.212;7.542;2023-01-25T13:54:48;3.40;99.90
4755;DHT22;2391;47.212;7.542;2023-01-25T13:57:22;3.40;99.90
4755;DHT22;2391;47.212;7.542;2023-01-25T14:00:05;3.30;99.90
4755;DHT22;2391;47.212;7.542;2023-01-25T14:02:35;3.30;99.90
4755;DHT22;2391;47.212;7.542;2023-01-25T14:05:01;3.30;99.90
4755;DHT22;2391;47.212;7.542;2023-01-25T14:07:32;3.30;99.90
4755;DHT22;2391;47.212;7.542;2023-01-25T14:10:02;3.30;99.90
4755;DHT22;2391;47.212;7.542;2023-01-25T14:12:39;3.30;99.90
4755;DHT22;2391;47.212;7.542;2023-01-25T14:15:17;3.30;99.90
4755;DHT22;2391;47.212;7.542;2023-01-25T14:17:44;3.30;99.90
4755;DHT22;2391;47.212;7.542;2023-01-25T14:20:18;3.30;99.90
4755;DHT22;2391;47.212;7.542;2023-01-25T14:22:49;3.30;99.90
4755;DHT22;2391;47.212;7.542;2023-01-25T14:25:17;3.30;99.90
4755;DHT22;2391;47.212;7.542;2023-01-25T14:27:46;3.30;99.90
4755;DHT22;2391;47.212;7.542;2023-01-25T14:30:19;3.30;99.90
4755;DHT22;2391;47.212;7.542;2023-01-25T14:32:45;3.30;99.90
4755;DHT22;2391;47.212;7.542;2023-01-25T14:37:56;3.40;99.90
4755;DHT22;2391;47.212;7.542;2023-01-25T14:40:23;3.40;99.90
4755;DHT22;2391;47.212;7.542;2023-01-25T14:42:51;3.20;99.90
4755;DHT22;2391;47.212;7.542;2023-01-25T14:45:19;3.30;99.90
4755;DHT22;2391;47.212;7.542;2023-01-25T14:47:47;3.20;99.90
4755;DHT22;2391;47.212;7.542;2023-01-25T14:50:37;3.20;99.90
4755;DHT22;2391;47.212;7.542;2023-01-25T14:53:21;3.20;99.90
4755;DHT22;2391;47.212;7.542;2023-01-25T14:55:48;3.20;99.90
4755;DHT22;2391;47.212;7.542;2023-01-25T14:58:23;3.20;99.90
4755;DHT22;2391;47.212;7.542;2023-01-25T15:00:55;3.20;99.90
4755;DHT22;2391;47.212;7.542;2023-01-25T15:03:22;3.30;99.90
4755;DHT22;2391;47.212;7.542;2023-01-25T15:05:50;3.40;99.90
4755;DHT22;2391;47.212;7.542;2023-01-25T15:08:28;3.40;99.90
4755;DHT22;2391;47.212;7.542;2023-01-25T15:10:56;3.30;99.90
4755;DHT22;2391;47.212;7.542;2023-01-25T15:13:25;3.30;99.90
4755;DHT22;2391;47.212;7.542;2023-01-25T15:16:02;3.20;99.90
4755;DHT22;2391;47.212;7.542;2023-01-25T15:21:23;3.10;99.90
4755;DHT22;2391;47.212;7.542;2023-01-25T15:23:51;3.20;99.90
4755;DHT22;2391;47.212;7.542;2023-01-25T15:28:50;3.30;99.90
4755;DHT22;2391;47.212;7.542;2023-01-25T15:31:23;3.30;99.90
4755;DHT22;2391;47.212;7.542;2023-01-25T15:33:45;3.30;99.90
4755;DHT22;2391;47.212;7.542;2023-01-25T15:36:12;3.30;99.90
4755;DHT22;2391;47.212;7.542;2023-01-25T15:38:40;3.40;99.90
4755;DHT22;2391;47.212;7.542;2023-01-25T15:41:08;3.50;99.90
4755;DHT22;2391;47.212;7.542;2023-01-25T15:43:34;3.50;99.90
4755;DHT22;2391;47.212;7.542;2023-01-25T15:46:01;3.50;99.90
4755;DHT22;2391;47.212;7.542;2023-01-25T15:48:35;3.40;99.90
4755;DHT22;2391;47.212;7.542;2023-01-25T15:51:02;3.40;99.90
4755;DHT22;2391;47.212;7.542;2023-01-25T15:53:28;3.30;99.90
4755;DHT22;2391;47.212;7.542;2023-01-25T15:55:57;3.30;99.90
4755;DHT22;2391;47.212;7.542;2023-01-25T15:58:32;3.30;99.90
4755;DHT22;2391;47.212;7.542;2023-01-25T16:00:58;3.30;99.90
4755;DHT22;2391;47.212;7.542;2023-01-25T16:03:25;3.30;99.90
4755;DHT22;2391;47.212;7.542;2023-01-25T16:06:03;3.40;99.90
4755;DHT22;2391;47.212;7.542;2023-01-25T16:08:30;3.40;99.90
4755;DHT22;2391;47.212;7.542;2023-01-25T16:10:56;3.40;99.90
4755;DHT22;2391;47.212;7.542;2023-01-25T16:13:22;3.40;99.90
4755;DHT22;2391;47.212;7.542;2023-01-25T16:15:51;3.40;99.90
4755;DHT22;2391;47.212;7.542;2023-01-25T16:18:18;3.40;99.90
4755;DHT22;2391;47.212;7.542;2023-01-25T16:20:44;3.40;99.90
4755;DHT22;2391;47.212;7.542;2023-01-25T16:23:10;3.40;99.90
4755;DHT22;2391;47.212;7.542;2023-01-25T16:25:39;3.40;99.90
4755;DHT22;2391;47.212;7.542;2023-01-25T16:28:16;3.40;99.90
4755;DHT22;2391;47.212;7.542;2023-01-25T16:30:35;3.40;99.90
4755;DHT22;2391;47.212;7.542;2023-01-25T16:33:01;3.40;99.90
4755;DHT22;2391;47.212;7.542;2023-01-25T16:35:29;3.40;99.90
4755;DHT22;2391;47.212;7.542;2023-01-25T16:37:55;3.30;99.90
4755;DHT22;2391;47.212;7.542;2023-01-25T16:40:27;3.40;99.90
4755;DHT22;2391;47.212;7.542;2023-01-25T16:42:54;3.40;99.90
4755;DHT22;2391;47.212;7.542;2023-01-25T16:45:20;3.40;99.90
4755;DHT22;2391;47.212;7.542;2023-01-25T16:47:49;3.40;99.90
4755;DHT22;2391;47.212;7.542;2023-01-25T16:50:17;3.50;99.90
4755;DHT22;2391;47.212;7.542;2023-01-25T16:52:44;3.50;99.90
4755;DHT22;2391;47.212;7.542;2023-01-25T16:55:12;3.50;99.90
4755;DHT22;2391;47.212;7.542;2023-01-25T16:57:39;3.50;99.90
4755;DHT22;2391;47.212;7.542;2023-01-25T17:00:08;3.60;99.90
4755;DHT22;2391;47.212;7.542;2023-01-25T17:02:37;3.70;99.90
4755;DHT22;2391;47.212;7.542;2023-01-25T17:05:04;3.80;99.90
4755;DHT22;2391;47.212;7.542;2023-01-25T17:07:30;3.70;99.90
4755;DHT22;2391;47.212;7.542;2023-01-25T17:09:56;3.80;99.90
4755;DHT22;2391;47.212;7.542;2023-01-25T17:12:22;3.70;99.90
4755;DHT22;2391;47.212;7.542;2023-01-25T17:14:47;3.60;99.90
4755;DHT22;2391;47.212;7.542;2023-01-25T17:17:13;3.40;99.90
4755;DHT22;2391;47.212;7.542;2023-01-25T17:19:39;3.30;99.90
4755;DHT22;2391;47.212;7.542;2023-01-25T17:22:04;3.30;99.90
4755;DHT22;2391;47.212;7.542;2023-01-25T17:24:31;3.20;99.90
4755;DHT22;2391;47.212;7.542;2023-01-25T17:26:57;3.10;99.90
4755;DHT22;2391;47.212;7.542;2023-01-25T17:29:23;3.00;99.90
4755;DHT22;2391;47.212;7.542;2023-01-25T17:31:49;2.90;99.90
4755;DHT22;2391;47.212;7.542;2023-01-25T17:34:17;2.90;99.90
4755;DHT22;2391;47.212;7.542;2023-01-25T17:36:44;3.00;99.90
4755;DHT22;2391;47.212;7.542;2023-01-25T17:39:12;3.10;99.90
4755;DHT22;2391;47.212;7.542;2023-01-25T17:41:42;3.10;99.90
4755;DHT22;2391;47.212;7.542;2023-01-25T17:44:08;3.20;99.90
4755;DHT22;2391;47.212;7.542;2023-01-25T17:46:35;3.20;99.90
4755;DHT22;2391;47.212;7.542;2023-01-25T17:49:08;3.20;99.90
4755;DHT22;2391;47.212;7.542;2023-01-25T17:51:34;3.30;99.90
4755;DHT22;2391;47.212;7.542;2023-01-25T17:54:02;3.30;99.90
4755;DHT22;2391;47.212;7.542;2023-01-25T17:56:28;3.30;99.90
4755;DHT22;2391;47.212;7.542;2023-01-25T17:58:55;3.30;99.90
4755;DHT22;2391;47.212;7.542;2023-01-25T18:01:23;3.30;99.90
4755;DHT22;2391;47.212;7.542;2023-01-25T18:03:51;3.30;99.90
4755;DHT22;2391;47.212;7.542;2023-01-25T18:06:20;3.30;99.90
4755;DHT22;2391;47.212;7.542;2023-01-25T18:08:48;3.40;99.90
4755;DHT22;2391;47.212;7.542;2023-01-25T18:11:17;3.40;99.90
4755;DHT22;2391;47.212;7.542;2023-01-25T18:13:51;3.30;99.90
4755;DHT22;2391;47.212;7.542;2023-01-25T18:16:14;3.30;99.90